createdAt,value
2023-02-13T00:01:28.450Z,103669.25
2023-02-13T00:03:56.810Z,103659.78
2023-02-13T00:06:25.469Z,103670.50
2023-02-13T00:08:55.474Z,103658.63
2023-02-13T00:11:23.905Z,103659.72
2023-02-13T00:13:53.506Z,103655.72
2023-02-13T00:16:21.842Z,103658.94
2023-02-13T00:18:50.196Z,103652.75
2023-02-13T00:21:18.610Z,103634.38
2023-02-13T00:23:47.214Z,103631.69
2023-02-13T00:26:18.777Z,103635.50
2023-02-13T00:28:47.617Z,103636.59
2023-02-13T00:31:18.309Z,103628.50
2023-02-13T00:33:47.262Z,103627.41
2023-02-13T00:36:18.599Z,103624.72
2023-02-13T00:38:47.443Z,103633.63
2023-02-13T00:41:18.294Z,103630.38
2023-02-13T00:43:47.825Z,103628.19
2023-02-13T00:46:16.585Z,103626.31
2023-02-13T00:48:45.685Z,103624.16
2023-02-13T00:51:14.621Z,103621.97
2023-02-13T00:53:43.158Z,103633.53
2023-02-13T00:56:11.884Z,103634.03
2023-02-13T00:58:41.689Z,103620.50
2023-02-13T01:01:10.022Z,103629.88
2023-02-13T01:03:38.457Z,103625.00
2023-02-13T01:06:08.002Z,103630.88
2023-02-13T01:08:36.962Z,103625.50
2023-02-13T01:11:05.797Z,103623.06
2023-02-13T01:13:34.169Z,103621.72
2023-02-13T01:16:04.202Z,103628.19
2023-02-13T01:18:33.393Z,103618.19
2023-02-13T01:21:05.109Z,103629.22
2023-02-13T01:23:34.983Z,103627.59
2023-02-13T01:26:06.210Z,103627.78
2023-02-13T01:28:35.159Z,103619.66
2023-02-13T01:31:04.989Z,103619.84
2023-02-13T01:33:33.335Z,103620.06
2023-02-13T01:36:07.367Z,103626.19
2023-02-13T01:38:35.752Z,103625.34
2023-02-13T01:41:04.165Z,103621.75
2023-02-13T01:43:49.299Z,103624.00
2023-02-13T01:46:26.416Z,103623.88
2023-02-13T01:48:59.662Z,103626.41
2023-02-13T01:51:33.121Z,103626.50
2023-02-13T01:54:05.765Z,103618.22
2023-02-13T01:56:38.139Z,103621.03
2023-02-13T01:59:15.206Z,103615.47
2023-02-13T02:01:46.148Z,103616.06
2023-02-13T02:04:16.971Z,103610.25
2023-02-13T02:06:51.537Z,103623.44
2023-02-13T02:09:24.606Z,103617.72
2023-02-13T02:12:01.209Z,103618.06
2023-02-13T02:14:29.642Z,103620.00
2023-02-13T02:16:59.776Z,103616.50
2023-02-13T02:19:39.458Z,103618.88
2023-02-13T02:22:54.967Z,103618.44
2023-02-13T02:26:01.019Z,103612.78
2023-02-13T02:28:51.557Z,103611.06
2023-02-13T02:32:09.190Z,103607.47
2023-02-13T02:34:49.225Z,103606.31
2023-02-13T02:37:35.051Z,103604.09
2023-02-13T02:40:17.763Z,103601.88
2023-02-13T02:43:05.996Z,103601.06
2023-02-13T02:45:42.286Z,103598.63
2023-02-13T02:48:40.617Z,103590.25
2023-02-13T02:51:20.834Z,103597.97
2023-02-13T02:54:03.544Z,103598.09
2023-02-13T02:56:39.196Z,103602.50
2023-02-13T02:59:30.168Z,103594.09
2023-02-13T03:02:17.989Z,103590.53
2023-02-13T03:05:08.809Z,103597.28
2023-02-13T03:07:37.253Z,103600.09
2023-02-13T03:10:27.649Z,103603.13
2023-02-13T03:13:20.569Z,103603.34
2023-02-13T03:16:09.345Z,103601.25
2023-02-13T03:19:00.433Z,103596.13
2023-02-13T03:21:56.869Z,103593.09
2023-02-13T03:24:29.837Z,103595.66
2023-02-13T03:27:07.117Z,103595.41
2023-02-13T03:30:04.610Z,103596.69
2023-02-13T03:32:42.223Z,103595.88
2023-02-13T03:35:41.720Z,103589.63
2023-02-13T03:38:19.680Z,103600.19
2023-02-13T03:41:10.484Z,103595.88
2023-02-13T03:43:48.309Z,103601.56
2023-02-13T03:46:17.801Z,103607.84
2023-02-13T03:49:05.180Z,103600.03
2023-02-13T03:51:39.450Z,103601.19
2023-02-13T03:54:19.746Z,103600.38
2023-02-13T03:57:07.812Z,103603.53
2023-02-13T03:59:40.359Z,103606.44
2023-02-13T04:02:13.954Z,103607.50
2023-02-13T04:04:50.149Z,103602.81
2023-02-13T04:07:30.819Z,103603.28
2023-02-13T04:10:04.219Z,103612.47
2023-02-13T04:12:40.206Z,103618.72
2023-02-13T04:15:16.045Z,103621.69
2023-02-13T04:17:50.334Z,103615.63
2023-02-13T04:20:19.736Z,103621.66
2023-02-13T04:22:49.766Z,103624.63
2023-02-13T04:25:21.440Z,103613.84
2023-02-13T04:27:49.848Z,103613.84
2023-02-13T04:30:18.501Z,103617.09
2023-02-13T04:32:46.798Z,103619.91
2023-02-13T04:35:15.422Z,103621.06
2023-02-13T04:37:43.734Z,103621.88
2023-02-13T04:40:13.185Z,103627.22
2023-02-13T04:42:42.883Z,103615.50
2023-02-13T04:45:11.711Z,103612.44
2023-02-13T04:47:39.978Z,103610.81
2023-02-13T04:50:09.403Z,103605.00
2023-02-13T04:52:37.782Z,103600.84
2023-02-13T04:55:07.244Z,103602.63
2023-02-13T04:57:35.535Z,103596.38
2023-02-13T05:00:06.897Z,103597.66
2023-02-13T05:02:35.210Z,103589.91
2023-02-13T05:05:03.554Z,103588.28
2023-02-13T05:07:31.938Z,103594.59
2023-02-13T05:10:00.227Z,103595.31
2023-02-13T05:12:28.633Z,103595.19
2023-02-13T05:14:57.344Z,103588.28
2023-02-13T05:17:28.362Z,103582.47
2023-02-13T05:19:56.797Z,103591.84
2023-02-13T05:22:47.615Z,103597.72
2023-02-13T05:25:16.485Z,103587.06
2023-02-13T05:27:44.893Z,103590.03
2023-02-13T05:30:15.369Z,103593.03
2023-02-13T05:32:45.014Z,103590.47
2023-02-13T05:35:13.444Z,103601.94
2023-02-13T05:37:41.781Z,103590.25
2023-02-13T05:40:11.926Z,103586.34
2023-02-13T05:42:40.366Z,103588.63
2023-02-13T05:45:10.235Z,103586.31
2023-02-13T05:47:38.721Z,103590.72
2023-02-13T05:50:10.239Z,103586.50
2023-02-13T05:52:38.647Z,103589.25
2023-02-13T05:55:08.196Z,103588.28
2023-02-13T05:57:36.630Z,103590.47
2023-02-13T06:00:07.302Z,103588.91
2023-02-13T06:02:35.654Z,103585.94
2023-02-13T06:05:03.961Z,103585.44
2023-02-13T06:07:33.874Z,103583.00
2023-02-13T06:10:02.329Z,103584.09
2023-02-13T06:12:30.744Z,103585.44
2023-02-13T06:14:59.201Z,103573.59
2023-02-13T06:17:27.791Z,103574.41
2023-02-13T06:19:56.179Z,103578.44
2023-02-13T06:22:24.526Z,103577.16
2023-02-13T06:24:55.590Z,103572.81
2023-02-13T06:27:23.842Z,103579.34
2023-02-13T06:29:52.137Z,103576.66
2023-02-13T06:32:20.484Z,103582.59
2023-02-13T06:34:48.774Z,103577.22
2023-02-13T06:37:17.148Z,103575.59
2023-02-13T06:39:45.526Z,103587.41
2023-02-13T06:42:15.256Z,103586.03
2023-02-13T06:44:43.577Z,103584.16
2023-02-13T06:47:12.176Z,103575.50
2023-02-13T06:49:40.495Z,103580.88
2023-02-13T06:52:09.078Z,103576.03
2023-02-13T06:54:47.202Z,103574.66
2023-02-13T06:57:18.010Z,103576.28
2023-02-13T06:59:46.350Z,103577.91
2023-02-13T07:02:15.211Z,103581.38
2023-02-13T07:04:43.617Z,103582.47
2023-02-13T07:07:12.205Z,103599.69
2023-02-13T07:09:41.184Z,103594.56
2023-02-13T07:12:09.854Z,103593.50
2023-02-13T07:14:39.544Z,103600.28
2023-02-13T07:17:07.953Z,103600.03
2023-02-13T07:19:36.343Z,103599.78
2023-02-13T07:22:04.730Z,103599.78
2023-02-13T07:24:35.413Z,103607.59
2023-02-13T07:27:03.764Z,103600.09
2023-02-13T07:29:32.091Z,103596.34
2023-02-13T07:32:01.828Z,103602.28
2023-02-13T07:34:30.287Z,103603.69
2023-02-13T07:36:58.651Z,103604.78
2023-02-13T07:39:27.112Z,103610.78
2023-02-13T07:41:55.607Z,103606.53
2023-02-13T07:44:23.954Z,103603.38
2023-02-13T07:46:52.357Z,103606.63
2023-02-13T07:49:22.111Z,103611.53
2023-02-13T07:51:50.486Z,103609.47
2023-02-13T07:54:19.019Z,103621.44
2023-02-13T07:56:47.307Z,103620.97
2023-02-13T07:59:15.827Z,103616.22
2023-02-13T08:01:44.199Z,103619.81
2023-02-13T08:04:12.719Z,103619.59
2023-02-13T08:06:43.268Z,103619.44
2023-02-13T08:09:39.637Z,103627.38
2023-02-13T08:12:10.941Z,103631.53
2023-02-13T08:14:39.327Z,103629.69
2023-02-13T08:17:07.727Z,103628.19
2023-02-13T08:19:36.197Z,103627.97
2023-02-13T08:22:06.063Z,103635.34
2023-02-13T08:24:34.693Z,103633.75
2023-02-13T08:27:03.053Z,103645.16
2023-02-13T08:29:31.368Z,103634.97
2023-02-13T08:31:59.736Z,103636.94
2023-02-13T08:34:28.287Z,103643.41
2023-02-13T08:36:56.803Z,103641.84
2023-02-13T08:39:26.567Z,103647.56
2023-02-13T08:41:54.958Z,103653.25
2023-02-13T08:44:23.424Z,103642.78
2023-02-13T08:46:51.797Z,103650.63
2023-02-13T08:49:20.117Z,103643.38
2023-02-13T08:51:48.414Z,103656.34
2023-02-13T08:54:17.571Z,103641.75
2023-02-13T08:56:47.239Z,103650.38
2023-02-13T08:59:15.726Z,103650.69
2023-02-13T09:01:44.286Z,103651.19
2023-02-13T09:04:15.822Z,103645.22
2023-02-13T09:06:44.095Z,103641.13
2023-02-13T09:09:13.031Z,103651.91
2023-02-13T09:11:41.317Z,103651.06
2023-02-13T09:14:11.116Z,103648.88
2023-02-13T09:16:39.457Z,103650.75
2023-02-13T09:19:08.544Z,103655.56
2023-02-13T09:21:37.111Z,103647.47
2023-02-13T09:24:09.792Z,103658.75
2023-02-13T09:26:38.169Z,103655.44
2023-02-13T09:29:06.528Z,103662.16
2023-02-13T09:31:36.351Z,103661.81
2023-02-13T09:34:04.868Z,103670.13
2023-02-13T09:36:33.644Z,103663.31
2023-02-13T09:39:01.947Z,103665.75
2023-02-13T09:41:33.543Z,103668.03
2023-02-13T09:44:06.299Z,103658.53
2023-02-13T09:46:39.114Z,103663.28
2023-02-13T09:49:13.330Z,103667.75
2023-02-13T09:51:44.192Z,103669.81
2023-02-13T09:54:19.144Z,103662.16
2023-02-13T09:57:00.562Z,103659.41
2023-02-13T09:59:44.351Z,103661.97
2023-02-13T10:02:53.449Z,103656.00
2023-02-13T10:05:48.191Z,103667.59
2023-02-13T10:08:35.614Z,103668.31
2023-02-13T10:11:21.440Z,103651.75
2023-02-13T10:14:02.078Z,103662.25
2023-02-13T10:16:39.489Z,103663.34
2023-02-13T10:19:23.220Z,103661.44
2023-02-13T10:21:56.141Z,103662.69
2023-02-13T10:24:35.290Z,103664.97
2023-02-13T10:27:17.621Z,103671.59
2023-02-13T10:30:09.578Z,103658.47
2023-02-13T10:32:48.809Z,103667.75
2023-02-13T10:35:26.134Z,103661.56
2023-02-13T10:37:58.699Z,103664.06
2023-02-13T10:40:34.007Z,103662.66
2023-02-13T10:43:10.629Z,103655.44
2023-02-13T10:46:07.993Z,103649.63
2023-02-13T10:49:06.105Z,103652.56
2023-02-13T10:51:43.467Z,103657.69
2023-02-13T10:54:44.714Z,103670.25
2023-02-13T10:57:15.753Z,103664.72
2023-02-13T11:00:06.088Z,103662.00
2023-02-13T11:02:37.021Z,103657.75
2023-02-13T11:05:18.307Z,103656.47
2023-02-13T11:07:49.426Z,103649.41
2023-02-13T11:10:21.433Z,103642.72
2023-02-13T11:12:50.757Z,103651.63
2023-02-13T11:15:26.787Z,103634.84
2023-02-13T11:17:57.209Z,103635.72
2023-02-13T11:20:34.845Z,103623.84
2023-02-13T11:23:38.841Z,103627.63
2023-02-13T11:26:10.085Z,103624.56
2023-02-13T11:28:41.500Z,103622.00
2023-02-13T11:31:26.505Z,103623.56
2023-02-13T11:33:57.401Z,103619.88
2023-02-13T11:36:30.371Z,103616.69
2023-02-13T11:39:06.853Z,103605.28
2023-02-13T11:41:42.418Z,103603.03
2023-02-13T11:44:25.420Z,103601.88
2023-02-13T11:46:55.806Z,103604.47
2023-02-13T11:49:26.551Z,103603.66
2023-02-13T11:51:57.625Z,103602.06
2023-02-13T11:54:33.264Z,103591.16
2023-02-13T11:57:05.882Z,103595.50
2023-02-13T11:59:43.193Z,103596.75
2023-02-13T12:02:19.307Z,103578.63
2023-02-13T12:04:49.756Z,103576.75
2023-02-13T12:07:23.452Z,103586.38
2023-02-13T12:10:02.102Z,103567.25
2023-02-13T12:12:42.315Z,103570.00
2023-02-13T12:15:20.167Z,103562.13
2023-02-13T12:18:04.255Z,103560.94
2023-02-13T12:20:52.407Z,103564.66
2023-02-13T12:23:34.171Z,103561.75
2023-02-13T12:26:28.426Z,103557.91
2023-02-13T12:29:20.850Z,103549.72
2023-02-13T12:32:08.911Z,103548.13
2023-02-13T12:35:16.860Z,103544.56
2023-02-13T12:38:03.320Z,103548.56
2023-02-13T12:40:58.227Z,103543.88
2023-02-13T12:43:58.952Z,103541.28
2023-02-13T12:46:33.850Z,103539.34
2023-02-13T12:49:18.111Z,103544.78
2023-02-13T12:51:55.976Z,103536.63
2023-02-13T12:54:45.388Z,103541.44
2023-02-13T12:57:29.006Z,103535.50
2023-02-13T13:00:18.515Z,103528.78
2023-02-13T13:03:25.710Z,103529.41
2023-02-13T13:06:20.229Z,103515.91
2023-02-13T13:09:23.362Z,103519.88
2023-02-13T13:12:12.393Z,103508.16
2023-02-13T13:14:51.350Z,103508.47
2023-02-13T13:17:36.787Z,103507.38
2023-02-13T13:20:41.390Z,103502.09
2023-02-13T13:23:17.519Z,103501.28
2023-02-13T13:25:54.198Z,103494.03
2023-02-13T13:28:25.157Z,103490.84
2023-02-13T13:30:54.947Z,103491.28
2023-02-13T13:33:28.131Z,103484.22
2023-02-13T13:36:05.345Z,103484.69
2023-02-13T13:38:51.812Z,103483.56
2023-02-13T13:41:31.594Z,103481.38
2023-02-13T13:44:14.171Z,103484.81
2023-02-13T13:46:54.456Z,103478.88
2023-02-13T13:49:37.188Z,103486.44
2023-02-13T13:52:22.637Z,103476.66
2023-02-13T13:54:53.760Z,103473.44
2023-02-13T13:57:24.240Z,103464.59
2023-02-13T14:00:31.044Z,103466.06
2023-02-13T14:03:25.334Z,103468.25
2023-02-13T14:06:05.941Z,103470.97
2023-02-13T14:09:10.749Z,103472.63
2023-02-13T14:11:43.101Z,103462.81
2023-02-13T14:14:52.555Z,103466.16
2023-02-13T14:17:57.122Z,103459.13
2023-02-13T14:20:37.481Z,103465.03
2023-02-13T14:23:33.139Z,103460.88
2023-02-13T14:26:31.967Z,103454.00
2023-02-13T14:29:28.586Z,103454.50
2023-02-13T14:32:19.946Z,103447.59
2023-02-13T14:34:59.680Z,103448.69
2023-02-13T14:37:36.954Z,103451.09
2023-02-13T14:40:33.495Z,103444.84
2023-02-13T14:43:34.632Z,103443.75
2023-02-13T14:46:16.286Z,103442.66
2023-02-13T14:48:50.653Z,103439.72
2023-02-13T14:51:28.702Z,103436.34
2023-02-13T14:54:05.346Z,103439.25
2023-02-13T14:56:35.491Z,103433.00
2023-02-13T14:59:13.912Z,103435.22
2023-02-13T15:01:52.987Z,103428.81
2023-02-13T15:04:28.577Z,103436.47
2023-02-13T15:06:59.065Z,103434.72
2023-02-13T15:09:34.200Z,103430.09
2023-02-13T15:12:03.938Z,103434.72
2023-02-13T15:14:34.924Z,103429.91
2023-02-13T15:17:10.925Z,103433.91
2023-02-13T15:19:45.967Z,103423.59
2023-02-13T15:22:22.001Z,103426.16
2023-02-13T15:24:51.393Z,103427.59
2023-02-13T15:27:26.501Z,103422.47
2023-02-13T15:29:58.427Z,103423.59
2023-02-13T15:32:34.253Z,103425.50
2023-02-13T15:35:03.421Z,103418.75
2023-02-13T15:37:32.478Z,103428.81
2023-02-13T15:40:20.820Z,103418.59
2023-02-13T15:42:53.216Z,103415.88
2023-02-13T15:45:24.360Z,103419.19
2023-02-13T15:47:53.338Z,103414.09
2023-02-13T15:50:34.962Z,103410.88
2023-02-13T15:53:07.200Z,103407.97
2023-02-13T15:55:38.479Z,103401.03
2023-02-13T15:58:13.400Z,103408.84
2023-02-13T16:00:43.759Z,103408.34
2023-02-13T16:03:18.701Z,103407.81
2023-02-13T16:05:47.983Z,103407.38
2023-02-13T16:08:36.539Z,103412.59
2023-02-13T16:11:28.082Z,103405.97
2023-02-13T16:14:17.598Z,103405.28
2023-02-13T16:16:58.173Z,103405.13
2023-02-13T16:19:37.709Z,103409.56
2023-02-13T16:22:26.631Z,103412.38
2023-02-13T16:24:58.785Z,103410.63
2023-02-13T16:27:29.156Z,103411.53
2023-02-13T16:30:01.626Z,103402.66
2023-02-13T16:32:32.965Z,103406.94
2023-02-13T16:35:25.309Z,103410.41
2023-02-13T16:37:57.422Z,103415.53
2023-02-13T16:40:41.399Z,103405.50
2023-02-13T16:43:39.168Z,103407.69
2023-02-13T16:46:40.658Z,103407.19
2023-02-13T16:49:20.494Z,103398.34
2023-02-13T16:51:53.618Z,103407.53
2023-02-13T16:54:38.394Z,103408.31
2023-02-13T16:57:20.894Z,103410.72
2023-02-13T16:59:59.980Z,103410.88
2023-02-13T17:02:31.141Z,103409.44
2023-02-13T17:05:17.385Z,103413.97
2023-02-13T17:07:48.303Z,103419.59
2023-02-13T17:10:22.298Z,103418.72
2023-02-13T17:12:52.530Z,103420.53
2023-02-13T17:15:24.620Z,103428.03
2023-02-13T17:17:54.935Z,103431.97
2023-02-13T17:20:26.923Z,103435.59
2023-02-13T17:22:57.638Z,103440.84
2023-02-13T17:25:29.395Z,103445.78
2023-02-13T17:28:00.056Z,103438.28
2023-02-13T17:30:32.120Z,103443.53
2023-02-13T17:33:07.427Z,103440.66
2023-02-13T17:35:36.416Z,103447.44
2023-02-13T17:38:06.230Z,103443.47
2023-02-13T17:40:34.560Z,103444.63
2023-02-13T17:43:04.462Z,103450.63
2023-02-13T17:45:34.886Z,103455.56
2023-02-13T17:48:04.989Z,103445.88
2023-02-13T17:50:35.284Z,103449.50
2023-02-13T17:53:05.708Z,103443.38
2023-02-13T17:55:35.734Z,103439.16
2023-02-13T17:58:04.312Z,103433.78
2023-02-13T18:00:35.627Z,103437.31
2023-02-13T18:03:05.640Z,103436.50
2023-02-13T18:05:34.352Z,103431.69
2023-02-13T18:08:03.187Z,103421.47
2023-02-13T18:10:34.248Z,103428.97
2023-02-13T18:13:05.024Z,103434.44
2023-02-13T18:15:33.917Z,103432.78
2023-02-13T18:18:04.009Z,103433.91
2023-02-13T18:20:32.479Z,103435.78
2023-02-13T18:23:01.129Z,103426.59
2023-02-13T18:25:29.747Z,103423.91
2023-02-13T18:27:58.095Z,103429.28
2023-02-13T18:30:26.632Z,103428.75
2023-02-13T18:32:56.603Z,103427.41
2023-02-13T18:35:26.678Z,103419.84
2023-02-13T18:37:55.132Z,103418.50
2023-02-13T18:40:23.482Z,103409.63
2023-02-13T18:42:52.527Z,103413.66
2023-02-13T18:45:21.091Z,103412.63
2023-02-13T18:47:49.413Z,103417.44
2023-02-13T18:50:17.902Z,103410.13
2023-02-13T18:52:47.923Z,103411.22
2023-02-13T18:55:16.656Z,103410.09
2023-02-13T18:57:45.562Z,103409.03
2023-02-13T19:00:17.160Z,103416.81
2023-02-13T19:02:45.654Z,103415.97
2023-02-13T19:05:14.156Z,103403.56
2023-02-13T19:07:42.523Z,103407.06
2023-02-13T19:10:14.848Z,103397.59
2023-02-13T19:12:43.599Z,103398.38
2023-02-13T19:15:12.059Z,103400.75
2023-02-13T19:17:40.554Z,103406.69
2023-02-13T19:20:11.013Z,103402.38
2023-02-13T19:22:39.433Z,103396.44
2023-02-13T19:25:08.410Z,103402.88
2023-02-13T19:27:39.205Z,103399.34
2023-02-13T19:30:09.752Z,103400.16
2023-02-13T19:32:38.211Z,103409.03
2023-02-13T19:35:07.575Z,103414.91
2023-02-13T19:37:43.831Z,103411.41
2023-02-13T19:40:14.257Z,103401.16
2023-02-13T19:42:44.058Z,103414.00
2023-02-13T19:45:12.661Z,103417.69
2023-02-13T19:47:41.103Z,103417.06
2023-02-13T19:50:10.613Z,103414.31
2023-02-13T19:52:39.214Z,103406.16
2023-02-13T19:55:08.536Z,103418.47
2023-02-13T19:57:36.926Z,103422.22
2023-02-13T20:00:09.849Z,103416.84
2023-02-13T20:02:38.397Z,103417.00
2023-02-13T20:05:08.814Z,103412.84
2023-02-13T20:07:37.201Z,103417.84
2023-02-13T20:10:08.139Z,103413.47
2023-02-13T20:12:36.721Z,103403.25
2023-02-13T20:15:07.103Z,103409.91
2023-02-13T20:17:38.772Z,103407.75
2023-02-13T20:20:09.003Z,103409.63
2023-02-13T20:22:37.415Z,103408.81
2023-02-13T20:25:06.540Z,103407.69
2023-02-13T20:30:08.707Z,103411.84
2023-02-13T20:32:38.446Z,103411.41
2023-02-13T20:35:07.948Z,103404.81
2023-02-13T20:37:36.428Z,103408.84
2023-02-13T20:40:05.564Z,103409.66
2023-02-13T20:42:34.941Z,103414.22
2023-02-13T20:45:03.715Z,103413.06
2023-02-13T20:47:33.455Z,103411.34
2023-02-13T20:50:01.782Z,103411.56
2023-02-13T20:52:30.200Z,103420.38
2023-02-13T20:55:01.298Z,103403.22
2023-02-13T20:57:29.642Z,103404.91
2023-02-13T20:59:57.906Z,103404.28
2023-02-13T21:02:26.372Z,103404.78
2023-02-13T21:04:56.512Z,103411.22
2023-02-13T21:07:24.869Z,103405.50
2023-02-13T21:09:53.285Z,103406.22
2023-02-13T21:12:21.584Z,103408.38
2023-02-13T21:14:50.023Z,103410.94
2023-02-13T21:17:18.451Z,103414.59
2023-02-13T21:19:46.809Z,103408.34
2023-02-13T21:22:16.566Z,103404.19
2023-02-13T21:24:45.273Z,103404.03
2023-02-13T21:27:13.642Z,103405.56
2023-02-13T21:29:42.010Z,103407.44
2023-02-13T21:32:10.488Z,103398.59
2023-02-13T21:34:38.887Z,103403.34
2023-02-13T21:37:07.699Z,103407.91
2023-02-13T21:39:37.561Z,103415.38
2023-02-13T21:42:06.157Z,103410.50
2023-02-13T21:44:34.469Z,103406.91
2023-02-13T21:47:03.428Z,103410.31
2023-02-13T21:49:32.807Z,103408.94
2023-02-13T21:52:01.204Z,103414.50
2023-02-13T21:54:29.759Z,103415.13
2023-02-13T21:56:59.503Z,103420.75
2023-02-13T21:59:28.178Z,103419.69
2023-02-13T22:01:58.204Z,103412.72
2023-02-13T22:04:26.954Z,103423.97
2023-02-13T22:06:55.335Z,103408.84
2023-02-13T22:09:26.965Z,103418.88
2023-02-13T22:11:55.508Z,103423.22
2023-02-13T22:14:25.355Z,103416.69
2023-02-13T22:16:53.851Z,103415.56
2023-02-13T22:19:22.551Z,103413.09
2023-02-13T22:21:51.409Z,103417.63
2023-02-13T22:24:19.771Z,103416.00
2023-02-13T22:26:48.186Z,103405.78
2023-02-13T22:29:18.569Z,103407.84
2023-02-13T22:31:48.597Z,103407.81
2023-02-13T22:34:17.021Z,103403.00
2023-02-13T22:36:45.528Z,103403.00
2023-02-13T22:39:14.306Z,103413.72
2023-02-13T22:41:45.541Z,103402.66
2023-02-13T22:44:14.044Z,103415.47
2023-02-13T22:46:42.408Z,103424.19
2023-02-13T22:49:12.303Z,103424.91
2023-02-13T22:51:40.651Z,103423.63
2023-02-13T22:54:09.046Z,103424.19
2023-02-13T22:56:37.428Z,103410.22
2023-02-13T22:59:05.982Z,103422.81
2023-02-13T23:01:34.458Z,103420.00
2023-02-13T23:04:03.029Z,103423.66
2023-02-13T23:06:32.940Z,103418.53
2023-02-13T23:09:01.274Z,103419.44
2023-02-13T23:11:48.052Z,103420.03
2023-02-13T23:14:17.245Z,103417.94
2023-02-13T23:17:03.708Z,103415.28
2023-02-13T23:19:32.339Z,103417.72
2023-02-13T23:22:02.532Z,103423.88
2023-02-13T23:24:32.577Z,103418.53
2023-02-13T23:27:01.528Z,103419.69
2023-02-13T23:29:29.897Z,103418.78
2023-02-13T23:31:58.488Z,103415.72
2023-02-13T23:34:27.082Z,103418.16
2023-02-13T23:36:55.425Z,103412.91
2023-02-13T23:39:25.255Z,103411.69
2023-02-13T23:41:53.664Z,103403.59
2023-02-13T23:44:22.007Z,103411.16
2023-02-13T23:46:50.373Z,103410.34
2023-02-13T23:49:19.019Z,103417.69
2023-02-13T23:51:47.472Z,103415.41
2023-02-13T23:54:17.154Z,103414.13
2023-02-13T23:56:47.265Z,103414.06
2023-02-13T23:59:17.405Z,103412.44
